• Join FlightAware (Why Join?)
  • Login
  • US Flag 
06:41PM EDT


 

Airport Tracker/Info


-or-


 

Live Flight TrackerFlight Track Log ✈ GJS3707 ✈ 22-May-2013 ✈ KBOI - KORD

Flight Track Log - Related Links

Times and Time Zones

All times are in EDT time to prevent confusion due to time zone crossing. See the GJS3707 flight status page for this flight to view local times or setup timezone preferences in your user account.

Time Position Orientation Groundspeed Altitude Reporting Facility
EDT Latitude Longitude Course Direction KTS MPH feet Rate Location/Type
04:31PM 43.5872 -116.2964 328° Northwest 199 229 5,000  Level Salt Lake Center
04:32PM 43.6372 -116.3400 328° Northwest 236 272 8,100 2,340 Climbing Salt Lake Center
04:33PM 43.6736 -116.2681 55° Northeast 276 318 9,900 2,100 Climbing Salt Lake Center
04:34PM 43.6864 -116.1444 82° East 291 335 12,500 1,800 Climbing Salt Lake Center
04:35PM 43.7006 -116.0264 81° East 318 366 13,700 1,800 Climbing Salt Lake Center
04:36PM 43.7194 -115.8706 80° East 363 418 16,200 2,100 Climbing Salt Lake Center
04:37PM 43.7353 -115.7367 81° East 369 425 18,100 1,740 Climbing Salt Lake Center
04:38PM 43.7542 -115.5769 81° East 378 435 19,800 1,440 Climbing Salt Lake Center
04:39PM 43.7706 -115.4325 81° East 395 455 21,100 1,200 Climbing Salt Lake Center
04:40PM 43.7878 -115.2833 81° East 408 470 22,300 1,260 Climbing Salt Lake Center
04:41PM 43.8083 -115.1044 81° East 422 486 23,800 1,260 Climbing Salt Lake Center
04:42PM 43.8236 -114.9497 82° East 424 488 25,000 1,080 Climbing Salt Lake Center
04:43PM 43.8447 -114.7647 81° East 434 499 26,100 1,020 Climbing Salt Lake Center
04:44PM 43.8619 -114.6017 82° East 448 516 27,200 960 Climbing Salt Lake Center
04:45PM 43.8822 -114.4086 82° East 456 525 28,100 840 Climbing Salt Lake Center
04:46PM 43.9003 -114.2403 81° East 462 532 29,000 1,020 Climbing Salt Lake Center
04:47PM 43.9178 -114.0742 82° East 455 524 30,200 1,140 Climbing Salt Lake Center
04:48PM 43.9353 -113.8944 82° East 453 521 31,400 960 Climbing Salt Lake Center
04:50PM 43.9544 -113.6983 82° East 460 529 32,200 720 Climbing Salt Lake Center
04:51PM 43.9714 -113.5278 82° East 468 539 32,900 780 Climbing Salt Lake Center
04:52PM 43.9875 -113.3292 83° East 464 534 33,900 720 Climbing Salt Lake Center
04:53PM 44.0042 -113.1592 82° East 465 535 34,500 480 Climbing Salt Lake Center
04:54PM 44.0183 -112.9883 83° East 466 536 35,000 240 Climbing Salt Lake Center
04:55PM 44.0392 -112.7819 82° East 482 555 35,000  Level Salt Lake Center
04:56PM 44.0561 -112.6003 83° East 494 568 35,000  Level Salt Lake Center
04:57PM 44.0728 -112.3819 84° East 507 583 35,000  Level Salt Lake Center
04:58PM 44.0886 -112.1925 83° East 516 594 35,000  Level Salt Lake Center
04:59PM 44.0903 -111.9756 89° East 504 580 35,000  Level Salt Lake Center
05:00PM 44.0919 -111.7892 89° East 506 582 35,000  Level Salt Lake Center
05:01PM 44.0936 -111.5736 89° East 502 578 35,000  Level Salt Lake Center
05:02PM 44.0942 -111.3894 90° East 501 577 35,000  Level Salt Lake Center
05:03PM 44.0939 -111.1767 90° East 497 572 35,000  Level Salt Lake Center
05:04PM 44.0942 -110.9936 90° East 497 572 35,000  Level Salt Lake Center
05:05PM 44.0933 -110.8097 90° East 499 574 35,000  Level Salt Lake Center
05:06PM 44.0919 -110.5961 90° East 498 573 35,000  Level Salt Lake Center
05:07PM 44.0925 -110.4125 90° East 497 572 35,000  Level Salt Lake Center
05:08PM 44.0922 -110.2169 90° East 452 520 35,000 120 Level Salt Lake Center
05:09PM 44.0900 -110.0469 91° East 459 528 35,300 420 Climbing Salt Lake Center
05:10PM 44.0867 -109.8458 91° East 466 536 35,900 480 Climbing Salt Lake Center
05:11PM 44.0844 -109.6700 91° East 471 542 36,300 480 Climbing Salt Lake Center
05:12PM 44.0825 -109.4669 91° East 475 547 36,900 300 Climbing Salt Lake Center
05:13PM 44.0797 -109.2933 91° East 472 543 37,000  Climbing Salt Lake Center
05:14PM 44.0772 -109.1144 91° East 481 554 37,000  Level Salt Lake Center
05:15PM 44.0731 -108.8994 91° East 497 572 37,000  Level Salt Lake Center
05:16PM 44.0689 -108.7144 92° East 501 577 37,000  Level Salt Lake Center
05:17PM 44.0650 -108.4972 91° East 505 581 37,000  Level Salt Lake Center
05:18PM 44.0606 -108.3103 92° East 508 585 37,000  Level Salt Lake Center
05:19PM 44.0547 -108.0942 92° East 504 580 37,000  Level Salt Lake Center
05:20PM 44.0497 -107.9083 92° East 505 581 37,000  Level Salt Lake Center
05:21PM 44.0431 -107.6936 92° East 502 578 37,000  Level Salt Lake Center
05:22PM 44.0372 -107.5108 92° East 499 574 37,000  Level Salt Lake Center
05:23PM 44.0306 -107.2972 92° East 498 573 37,000  Level Salt Lake Center
05:24PM 44.0239 -107.1186 93° East 493 567 37,000  Level Salt Lake Center
05:25PM 44.0147 -106.9094 93° East 489 563 37,000  Level Salt Lake Center
05:26PM 44.0119 -106.7561 91° East 490 564 37,000  Level Denver Center
05:27PM 44.0058 -106.5744 93° East 492 566 37,000  Level Denver Center
05:28PM 44.0003 -106.3642 92° East 488 562 37,000  Level Denver Center
05:30PM 44.0011 -106.1542 90° East 492 566 37,000  Level Salt Lake Center
05:30PM 44.0033 -105.9678 89° East 495 570 37,000  Level Denver Center
05:32PM 44.0047 -105.7856 89° East 494 568 37,000  Level Denver Center
05:33PM 44.0042 -105.5714 90° East 495 570 37,000  Level Denver Center
05:34PM 44.0042 -105.3881 90° East 496 571 37,000  Level Denver Center
05:35PM 44.0044 -105.1739 90° East 496 571 37,000  Level Denver Center
05:36PM 44.0031 -104.9897 91° East 497 572 37,000  Level Denver Center
05:37PM 44.0025 -104.8064 90° East 496 571 37,000  Level Denver Center
05:38PM 44.0011 -104.5933 90° East 493 567 37,000  Level Denver Center
05:39PM 43.9994 -104.4153 91° East 485 558 37,000  Level Denver Center
05:40PM 43.9964 -104.2100 91° East 477 549 37,000  Level Denver Center
05:41PM 43.9950 -104.0314 91° East 481 554 37,000  Level Denver Center
05:42PM 43.9917 -103.8253 91° East 481 554 37,000  Level Denver Center
05:43PM 43.9894 -103.6500 91° East 475 547 37,000  Level Denver Center
05:44PM 43.9847 -103.4431 92° East 479 551 37,000  Level Denver Center
05:45PM 43.9817 -103.2706 91° East 471 542 37,000  Level Denver Center
05:46PM 43.9797 -103.0669 91° East 470 541 37,000  Level Denver Center
05:47PM 43.9731 -102.8900 93° East 476 548 37,000  Level Denver Center
05:48PM 43.9678 -102.7114 92° East 472 543 37,000  Level Denver Center
05:49PM 43.9603 -102.5275 93° East 475 547 37,000  Level Denver Center
05:50PM 43.9547 -102.3450 92° East 476 548 37,000  Level Denver Center
05:51PM 43.9464 -102.1269 93° East 473 544 37,000  Level Denver Center
05:52PM 43.9397 -101.9442 93° East 475 547 37,000  Level Denver Center
05:53PM 43.9336 -101.7622 93° East 474 545 37,000  Level Denver Center
05:54PM 43.9289 -101.5819 92° East 474 545 37,000  Level Minneapolis Center
05:55PM 43.9219 -101.3978 93° East 475 547 37,000  Level Minneapolis Center
05:56PM 43.9172 -101.2178 92° East 474 545 37,000  Level Minneapolis Center
05:57PM 43.9075 -100.9972 93° East 478 550 37,000  Level Minneapolis Center
05:58PM 43.9000 -100.8161 93° East 476 548 37,000  Level Minneapolis Center
05:59PM 43.8911 -100.6339 94° East 476 548 37,000  Level Minneapolis Center
06:00PM 43.8831 -100.4503 93° East 478 550 37,000  Level Minneapolis Center
06:01PM 43.8742 -100.2692 94° East 476 548 37,000  Level Minneapolis Center
06:03PM 43.8642 -100.0514 94° East 475 547 37,000  Level Minneapolis Center
06:04PM 43.8542 -99.8700 94° East 476 548 37,000  Level Minneapolis Center
06:05PM 43.8439 -99.6894 94° East 474 545 37,000  Level Minneapolis Center
06:06PM 43.8347 -99.5081 94° East 475 547 37,000  Level Minneapolis Center
06:07PM 43.8236 -99.3247 95° East 478 550 37,000  Level Minneapolis Center
06:08PM 43.8147 -99.1433 94° East 476 548 37,000  Level Minneapolis Center
06:09PM 43.8011 -98.9236 95° East 479 551 37,000  Level Minneapolis Center
06:10PM 43.7892 -98.7414 95° East 478 550 37,000  Level Minneapolis Center
06:11PM 43.7800 -98.5769 94° East 480 552 37,000  Level Minneapolis Center
06:12PM 43.7653 -98.3586 95° East 478 550 37,000  Level Minneapolis Center
06:13PM 43.7522 -98.1769 96° East 477 549 37,000  Level Minneapolis Center
06:14PM 43.7406 -97.9953 95° East 476 548 37,000  Level Minneapolis Center
06:15PM 43.7286 -97.8139 95° East 475 547 37,000  Level Minneapolis Center
06:16PM 43.7147 -97.6314 96° East 479 551 37,000  Level Minneapolis Center
06:17PM 43.6986 -97.4142 96° East 477 549 37,000  Level Minneapolis Center
06:18PM 43.6844 -97.2317 96° East 479 551 37,000  Level Minneapolis Center
06:19PM 43.6708 -97.0500 96° East 478 550 37,000  Level Minneapolis Center
06:20PM 43.6569 -96.8686 96° East 479 551 37,000  Level Minneapolis Center
06:21PM 43.6367 -96.6889 99° East 478 550 37,000  Level Minneapolis Center
06:22PM 43.6050 -96.4719 101° East 483 556 37,000  Level Minneapolis Center
06:23PM 43.5781 -96.2917 102° East 484 557 37,000  Level Minneapolis Center
06:24PM 43.5506 -96.1114 102° East 485 558 37,000  Level Minneapolis Center
06:25PM 43.5239 -95.9319 102° East 484 557 37,000  Level Minneapolis Center
06:26PM 43.4961 -95.7517 102° East 484 557 37,000  Level Minneapolis Center
06:27PM 43.4625 -95.5356 102° East 484 557 37,000  Level Minneapolis Center
06:28PM 43.4342 -95.3542 102° East 487 560 37,000  Level Minneapolis Center
06:29PM 43.4056 -95.1744 102° East 486 559 37,000  Level Minneapolis Center
06:30PM 43.3767 -94.9914 102° East 489 563 37,000  Level Minneapolis Center
06:31PM 43.3475 -94.8114 103° East 488 562 37,000  Level Minneapolis Center
06:33PM 43.3114 -94.5950 103° East 487 560 37,000  Level Minneapolis Center
06:34PM 43.2825 -94.4128 102° East 488 562 37,000  Level Minneapolis Center
06:35PM 43.2542 -94.2356 102° East 492 566 37,000 -1,020 Level Minneapolis Center
06:36PM 43.2217 -94.0628 104° East 481 554 35,000 -960 Descending Minneapolis Center
06:37PM 43.1936 -93.8961 103° East 459 528 35,000  Level Minneapolis Center
06:38PM 43.1575 -93.6925 104° East 463 533 35,000  Level Minneapolis Center
06:39PM 43.1264 -93.5189 104° East 474 545 35,000  Level Minneapolis Center
06:40PM 43.0964 -93.3403 103° East 485 558 35,000  Level Minneapolis Center
06:41PM 43.0836 -93.1578 95° East 486 559 35,000  Level Minneapolis Center
06:42PM 43.0711 -92.9739 95° East 491 565 35,000 -540 Level Minneapolis Center
06:43PM 43.0567 -92.7594 95° East 481 554 34,000 -960 Descending Minneapolis Center
06:44PM 43.0442 -92.6194 97° East 472 543 33,200 -960 Descending Chicago Center
06:45PM 43.0311 -92.4461 96° East 464 534 32,200 -1,020 Descending Chicago Center
06:46PM 43.0192 -92.2664 95° East 474 545 31,200 -600 Descending Chicago Center
06:47PM 43.0036 -92.0447 95° East 488 562 31,000 -120 Descending Chicago Center
06:48PM 42.9903 -91.8619 96° East 486 559 31,000  Level Chicago Center
06:49PM 42.9775 -91.6792 95° East 480 552 31,000  Level Chicago Center
06:50PM 42.9628 -91.4947 96° East 482 555 31,000 -300 Level Chicago Center
06:51PM 42.9478 -91.3119 96° East 482 555 30,500 -720 Descending Chicago Center
06:52PM 42.9333 -91.1358 96° East 469 540 29,600 -900 Descending Chicago Center
06:53PM 42.9186 -90.9597 96° East 470 541 28,700 -1,020 Descending Chicago Center
06:54PM 42.9000 -90.7464 97° East 475 547 27,600 -1,020 Descending Chicago Center
06:55PM 42.8831 -90.5689 97° East 477 549 26,700 -900 Descending Chicago Center
06:56PM 42.8694 -90.3939 96° East 470 541 25,800 -840 Descending Chicago Center
06:57PM 42.8519 -90.2208 98° East 466 536 25,000 -840 Descending Chicago Center
06:58PM 42.8286 -90.0508 101° East 465 535 24,100 -540 Descending Chicago Center
06:59PM 42.7811 -89.8794 111° Southeast 455 524 24,000 -60 Descending Chicago Center
07:00PM 42.7286 -89.6961 111° Southeast 448 516 24,000 -540 Level Chicago Center
07:01PM 42.6819 -89.5392 112° Southeast 448 516 22,900 -1,740 Descending Chicago Center
07:02PM 42.6394 -89.3867 111° Southeast 436 502 20,500 -2,460 Descending Chicago Center
07:03PM 42.5981 -89.2428 111° Southeast 416 479 17,900 -2,460 Descending Chicago Center
07:04PM 42.5575 -89.1022 111° Southeast 403 464 15,500 -1,920 Descending Chicago Center
07:05PM 42.5097 -88.9447 112° Southeast 392 451 14,000 -1,200 Descending Chicago Center
07:06PM 42.4689 -88.8117 113° Southeast 385 443 13,100 -1,080 Descending Chicago Center
07:08PM 42.4289 -88.6817 113° Southeast 379 436 11,800 -1,260 Descending Chicago Center
07:09PM 42.3906 -88.5514 112° Southeast 375 432 10,500 -900 Descending Chicago Center
07:10PM 42.3531 -88.4256 112° Southeast 366 421 10,000 -300 Descending Chicago Center
07:11PM 42.2969 -88.3153 124° Southeast 357 411 10,000  Level Chicago Center
07:12PM 42.2228 -88.1925 129° Southeast 353 406 10,000  Level Chicago Center
07:13PM 42.1569 -88.1044 135° Southeast 332 382 10,100 -720 Climbing Chicago Center
07:14PM 42.0978 -88.0317 138° Southeast 291 335 8,600 -1,680 Descending Chicago Center
07:14PM 42.0833 -87.9667 107° East 298 343 7,600 -1,080 Descending Chicago TRACON
07:15PM 42.0833 -87.8667 90° East 264 304 7,000 -720 Descending Chicago TRACON
07:16PM 42.0908 -87.8286 75° East 270 311 6,500 -1,740 Descending Chicago Center
07:17PM 42.0736 -87.7294 103° East 251 289 4,200 -1,860 Descending Chicago Center
07:18PM 42.0269 -87.7519 200° South 210 242 2,700 -1,500 Descending Chicago Center